Time;durP1;ratioP1;P1;durP2;ratioP2;P2;SDS_P1;SDS_P2;PMS_P1;PMS_P2;Temp;Humidity;BMP_temperature;BMP_pressure;BME280_temperature;BME280_humidity;BME280_pressure;Samples;Min_cycle;Max_cycle;Signal;HPM_P1;HPM_P2
2022/01/27 00:07:39;;;;;;;28.35;20.00;;;;;;;;;;4993091;28;20714;-34
2022/01/27 00:10:42;;;;;;;30.90;21.38;;;;;;;;;;4994175;28;21022;-34
2022/01/27 00:13:13;;;;;;;31.80;20.40;;;;;;;;;;4992990;28;20245;-31
2022/01/27 00:15:40;;;;;;;33.13;21.85;;;;;;;;;;4997151;28;21024;-34
2022/01/27 00:18:14;;;;;;;34.63;21.63;;;;;;;;;;4993156;28;20228;-31
2022/01/27 00:20:41;;;;;;;30.52;20.27;;;;;;;;;;4992318;28;20232;-34
2022/01/27 00:23:08;;;;;;;31.73;21.27;;;;;;;;;;4992159;28;20243;-32
2022/01/27 00:25:34;;;;;;;32.28;21.35;;;;;;;;;;4992529;28;20240;-34
2022/01/27 00:28:01;;;;;;;31.27;21.92;;;;;;;;;;4992691;28;20220;-35
2022/01/27 00:30:28;;;;;;;30.13;21.13;;;;;;;;;;4991704;28;20721;-36
2022/01/27 00:32:55;;;;;;;29.65;21.20;;;;;;;;;;4992360;28;20244;-33
2022/01/27 00:35:22;;;;;;;31.60;22.25;;;;;;;;;;4992743;28;20236;-31
2022/01/27 00:37:49;;;;;;;31.00;21.67;;;;;;;;;;4992586;28;20235;-34
2022/01/27 00:40:16;;;;;;;31.23;21.67;;;;;;;;;;4991989;28;20260;-33
2022/01/27 00:42:45;;;;;;;30.15;21.70;;;;;;;;;;4994329;28;20236;-32
2022/01/27 00:45:12;;;;;;;30.15;22.73;;;;;;;;;;4991218;28;20236;-32
2022/01/27 00:47:39;;;;;;;34.53;22.08;;;;;;;;;;4991229;28;20255;-32
2022/01/27 00:50:07;;;;;;;31.65;22.33;;;;;;;;;;4989848;28;20228;-31
2022/01/27 00:52:39;;;;;;;31.77;22.08;;;;;;;;;;4991056;28;20239;-32
2022/01/27 00:55:06;;;;;;;28.65;20.40;;;;;;;;;;4992006;28;20236;-34
2022/01/27 00:57:52;;;;;;;28.23;21.35;;;;;;;;;;4992175;28;20232;-32
2022/01/27 01:00:24;;;;;;;27.88;20.17;;;;;;;;;;4992866;28;20400;-33
2022/01/27 01:02:58;;;;;;;28.77;21.13;;;;;;;;;;4991997;28;20234;-35
2022/01/27 01:16:22;;;;;;;28.63;18.73;;;;;;;;;;4988342;28;20247;-34
2022/01/27 01:18:59;;;;;;;23.55;16.98;;;;;;;;;;4989772;28;20255;-31
2022/01/27 01:22:09;;;;;;;26.95;17.98;;;;;;;;;;4989078;28;20232;-33
2022/01/27 01:30:20;;;;;;;22.75;16.95;;;;;;;;;;4994682;28;20242;-33
2022/01/27 01:32:52;;;;;;;26.20;17.30;;;;;;;;;;4996795;28;20228;-36
2022/01/27 01:35:28;;;;;;;21.42;16.23;;;;;;;;;;4991117;28;20846;-33
2022/01/27 01:37:55;;;;;;;25.50;15.98;;;;;;;;;;4991620;28;20349;-34
2022/01/27 01:40:22;;;;;;;22.08;15.10;;;;;;;;;;4991396;28;20315;-33
2022/01/27 01:42:49;;;;;;;23.98;15.38;;;;;;;;;;4991720;28;20238;-31
2022/01/27 01:45:17;;;;;;;21.92;15.48;;;;;;;;;;4993110;28;20323;-39
2022/01/27 01:47:44;;;;;;;23.55;15.90;;;;;;;;;;4990297;28;20742;-34
2022/01/27 01:50:11;;;;;;;21.15;15.38;;;;;;;;;;4991206;28;20287;-33
2022/01/27 01:52:38;;;;;;;22.33;15.43;;;;;;;;;;4991378;28;20246;-32
2022/01/27 01:55:05;;;;;;;17.90;14.32;;;;;;;;;;4991832;28;20239;-32
2022/01/27 01:57:32;;;;;;;21.02;15.48;;;;;;;;;;4992489;28;21181;-35
2022/01/27 01:59:59;;;;;;;23.85;15.93;;;;;;;;;;4991583;28;20724;-35
2022/01/27 02:02:26;;;;;;;21.25;16.40;;;;;;;;;;4992687;28;20236;-33
2022/01/27 02:04:54;;;;;;;21.17;15.73;;;;;;;;;;4991447;28;20232;-33
2022/01/27 02:07:29;;;;;;;20.92;15.75;;;;;;;;;;4991423;28;20721;-34
2022/01/27 02:18:07;;;;;;;23.88;16.45;;;;;;;;;;4988734;28;20242;-37
2022/01/27 02:20:34;;;;;;;19.25;15.35;;;;;;;;;;4992849;28;20228;-32
2022/01/27 02:23:01;;;;;;;20.98;15.00;;;;;;;;;;4988929;28;20244;-35
2022/01/27 02:25:28;;;;;;;18.73;14.05;;;;;;;;;;4991068;28;20232;-31
2022/01/27 02:27:55;;;;;;;21.48;15.07;;;;;;;;;;4993983;28;20236;-32
2022/01/27 02:30:25;;;;;;;21.65;14.88;;;;;;;;;;4987751;28;20228;-33
2022/01/27 02:32:52;;;;;;;21.60;14.52;;;;;;;;;;4987210;28;20236;-34
2022/01/27 02:35:19;;;;;;;18.48;14.45;;;;;;;;;;4991260;28;20331;-33
2022/01/27 02:37:46;;;;;;;20.75;14.95;;;;;;;;;;4989947;28;20243;-35
2022/01/27 02:40:13;;;;;;;19.08;13.02;;;;;;;;;;4988374;28;20319;-33
2022/01/27 02:42:40;;;;;;;21.27;14.35;;;;;;;;;;4989990;28;20731;-36
2022/01/27 02:45:07;;;;;;;19.50;14.27;;;;;;;;;;4992744;28;21050;-37
2022/01/27 02:47:34;;;;;;;20.85;13.52;;;;;;;;;;4993806;28;20343;-36
2022/01/27 02:50:01;;;;;;;19.63;13.95;;;;;;;;;;4994410;28;20235;-34
2022/01/27 02:52:28;;;;;;;20.75;14.13;;;;;;;;;;4998316;28;20720;-35
2022/01/27 02:54:55;;;;;;;17.40;13.80;;;;;;;;;;4994793;28;20244;-34
2022/01/27 02:57:22;;;;;;;22.55;14.23;;;;;;;;;;4996487;28;20243;-38
2022/01/27 02:59:49;;;;;;;21.05;14.27;;;;;;;;;;4994199;28;20259;-35
2022/01/27 03:02:16;;;;;;;20.95;14.63;;;;;;;;;;4993763;28;20365;-36
2022/01/27 03:04:43;;;;;;;19.55;13.88;;;;;;;;;;4993085;28;20232;-32
2022/01/27 03:07:11;;;;;;;19.88;14.05;;;;;;;;;;4993770;28;20236;-36
2022/01/27 03:09:38;;;;;;;20.35;13.43;;;;;;;;;;4993979;28;20224;-34
2022/01/27 03:12:08;;;;;;;26.45;14.52;;;;;;;;;;4996500;28;20232;-32
2022/01/27 03:14:35;;;;;;;20.50;14.40;;;;;;;;;;4993208;28;20240;-34
2022/01/27 03:17:02;;;;;;;20.50;13.90;;;;;;;;;;4993440;28;20323;-31
2022/01/27 03:19:29;;;;;;;19.17;13.40;;;;;;;;;;4996927;28;20236;-33
2022/01/27 03:21:56;;;;;;;21.48;14.00;;;;;;;;;;4993894;28;20232;-32
2022/01/27 03:24:24;;;;;;;17.35;12.38;;;;;;;;;;4994145;28;20232;-32
2022/01/27 03:26:51;;;;;;;17.60;12.77;;;;;;;;;;4992408;28;21015;-33
2022/01/27 03:29:18;;;;;;;18.60;13.65;;;;;;;;;;4993802;28;20750;-35
2022/01/27 03:31:45;;;;;;;18.55;13.13;;;;;;;;;;4993768;28;21592;-34
2022/01/27 03:34:12;;;;;;;18.05;13.18;;;;;;;;;;4993683;28;20939;-35
2022/01/27 03:36:39;;;;;;;18.17;13.18;;;;;;;;;;4993032;28;20243;-32
2022/01/27 03:39:08;;;;;;;20.55;13.82;;;;;;;;;;4992730;28;20228;-33
2022/01/27 03:41:36;;;;;;;19.05;13.43;;;;;;;;;;4992808;28;20234;-41
2022/01/27 03:44:03;;;;;;;19.77;12.68;;;;;;;;;;4993462;28;20234;-34
2022/01/27 03:46:30;;;;;;;15.88;12.50;;;;;;;;;;4993354;28;20255;-32
2022/01/27 03:48:57;;;;;;;19.45;12.32;;;;;;;;;;4992160;28;21039;-34
2022/01/27 03:51:24;;;;;;;18.42;13.20;;;;;;;;;;4995430;28;21018;-34
2022/01/27 03:53:51;;;;;;;20.92;13.38;;;;;;;;;;4993164;28;20248;-32
2022/01/27 03:56:18;;;;;;;18.95;12.98;;;;;;;;;;4992180;28;20247;-33
2022/01/27 03:58:45;;;;;;;16.42;13.00;;;;;;;;;;4992551;28;20236;-35
2022/01/27 04:01:12;;;;;;;19.30;13.25;;;;;;;;;;4993371;28;20243;-31
2022/01/27 04:03:39;;;;;;;18.45;13.48;;;;;;;;;;4993349;28;20291;-31
2022/01/27 04:06:08;;;;;;;18.67;13.50;;;;;;;;;;4993256;28;21137;-33
2022/01/27 04:08:37;;;;;;;19.52;13.10;;;;;;;;;;4993013;28;20232;-31
2022/01/27 04:11:04;;;;;;;18.90;13.57;;;;;;;;;;4992334;28;20263;-35
2022/01/27 04:13:31;;;;;;;18.10;12.95;;;;;;;;;;4992998;28;21059;-32
2022/01/27 04:15:58;;;;;;;18.40;13.02;;;;;;;;;;4993110;28;20700;-35
2022/01/27 04:18:25;;;;;;;19.27;13.07;;;;;;;;;;4993216;28;20912;-33
2022/01/27 04:20:52;;;;;;;18.73;12.93;;;;;;;;;;4992222;28;20348;-34
2022/01/27 04:23:19;;;;;;;18.30;12.50;;;;;;;;;;4993246;28;20236;-37
2022/01/27 04:25:46;;;;;;;16.42;12.00;;;;;;;;;;4993665;28;20316;-32
2022/01/27 04:28:18;;;;;;;16.08;12.18;;;;;;;;;;4993138;28;20240;-33
2022/01/27 04:30:46;;;;;;;19.40;12.93;;;;;;;;;;4992662;28;20239;-35
2022/01/27 04:35:50;;;;;;;18.92;11.57;;;;;;;;;;5146673;23;20457;-37
2022/01/27 04:38:22;;;;;;;18.40;12.30;;;;;;;;;;5006258;28;20847;-37
2022/01/27 04:46:03;;;;;;;14.82;10.98;;;;;;;;;;5008239;28;20224;-38
2022/01/27 04:48:35;;;;;;;17.33;11.90;;;;;;;;;;5012251;28;20220;-36
2022/01/27 04:51:06;;;;;;;17.60;12.43;;;;;;;;;;5015039;28;20239;-38
2022/01/27 04:53:37;;;;;;;15.73;11.93;;;;;;;;;;5009995;28;20698;-38
2022/01/27 04:56:17;;;;;;;17.60;12.05;;;;;;;;;;5002767;28;20227;-37
2022/01/27 04:58:47;;;;;;;16.77;12.43;;;;;;;;;;5005382;28;20234;-37
2022/01/27 05:01:16;;;;;;;17.77;12.30;;;;;;;;;;5002807;28;20235;-39
2022/01/27 05:03:49;;;;;;;16.27;12.15;;;;;;;;;;5003254;28;20232;-38
2022/01/27 05:06:16;;;;;;;19.95;12.90;;;;;;;;;;5001744;28;20231;-38
2022/01/27 05:08:43;;;;;;;18.15;12.20;;;;;;;;;;5005676;28;21019;-37
2022/01/27 05:11:17;;;;;;;16.67;11.98;;;;;;;;;;5006129;28;20303;-37
2022/01/27 05:13:54;;;;;;;18.98;12.18;;;;;;;;;;5010199;28;20234;-39
2022/01/27 05:16:21;;;;;;;17.80;11.50;;;;;;;;;;5012395;28;20237;-38
2022/01/27 05:18:48;;;;;;;15.15;11.32;;;;;;;;;;5014647;28;20220;-38
2022/01/27 05:21:15;;;;;;;16.33;11.50;;;;;;;;;;5014499;28;20228;-38
2022/01/27 05:23:42;;;;;;;16.83;11.50;;;;;;;;;;5013072;28;20904;-37
2022/01/27 05:26:09;;;;;;;15.95;12.25;;;;;;;;;;5014472;28;20347;-38
2022/01/27 05:28:37;;;;;;;14.90;11.23;;;;;;;;;;4995543;28;20228;-37
2022/01/27 05:31:05;;;;;;;17.50;11.98;;;;;;;;;;4995900;28;20227;-38
2022/01/27 05:33:32;;;;;;;17.10;11.82;;;;;;;;;;4998746;28;20784;-39
2022/01/27 05:35:59;;;;;;;20.52;12.18;;;;;;;;;;4997624;28;21195;-38
2022/01/27 05:38:26;;;;;;;17.80;11.77;;;;;;;;;;4994561;28;20214;-37
2022/01/27 05:40:53;;;;;;;18.27;11.38;;;;;;;;;;4986267;28;21151;-38
2022/01/27 05:43:20;;;;;;;16.83;11.25;;;;;;;;;;4988960;28;20235;-38
2022/01/27 05:45:47;;;;;;;17.85;11.32;;;;;;;;;;5003742;28;20324;-37
2022/01/27 05:48:14;;;;;;;14.02;10.48;;;;;;;;;;4995267;28;20281;-37
2022/01/27 05:50:41;;;;;;;18.83;10.80;;;;;;;;;;5007448;28;20239;-38
2022/01/27 05:53:08;;;;;;;15.85;10.93;;;;;;;;;;4994815;28;20239;-39
2022/01/27 05:55:35;;;;;;;16.52;11.50;;;;;;;;;;4991286;28;20232;-39
2022/01/27 05:58:02;;;;;;;14.75;11.00;;;;;;;;;;5001080;28;20233;-38
2022/01/27 06:00:29;;;;;;;22.25;11.38;;;;;;;;;;4998312;28;20236;-38
2022/01/27 06:02:56;;;;;;;17.85;10.27;;;;;;;;;;5012903;28;20235;-39
2022/01/27 06:05:23;;;;;;;16.63;10.68;;;;;;;;;;5001730;28;20231;-40
2022/01/27 06:07:50;;;;;;;18.55;10.48;;;;;;;;;;4997765;28;20227;-46
2022/01/27 06:10:17;;;;;;;19.10;9.80;;;;;;;;;;4986460;28;21056;-49
2022/01/27 06:12:44;;;;;;;18.65;9.90;;;;;;;;;;4985835;28;20239;-48
2022/01/27 06:15:11;;;;;;;19.50;9.65;;;;;;;;;;4980106;28;20243;-46
2022/01/27 06:17:38;;;;;;;15.10;9.70;;;;;;;;;;4986823;28;20225;-47
2022/01/27 06:20:05;;;;;;;12.73;8.45;;;;;;;;;;4991184;28;20232;-50
2022/01/27 06:22:32;;;;;;;16.10;8.68;;;;;;;;;;4988556;28;20228;-45
2022/01/27 06:24:59;;;;;;;28.58;9.23;;;;;;;;;;4984868;28;20725;-47
2022/01/27 06:27:25;;;;;;;13.30;8.70;;;;;;;;;;4996747;28;20574;-41
2022/01/27 06:29:52;;;;;;;15.02;8.80;;;;;;;;;;4995373;28;20238;-42
2022/01/27 06:32:19;;;;;;;15.70;8.68;;;;;;;;;;5010122;28;20261;-41
2022/01/27 06:34:47;;;;;;;17.25;8.50;;;;;;;;;;4974262;28;21916;-43
2022/01/27 06:37:14;;;;;;;18.17;9.10;;;;;;;;;;4976338;28;20221;-43
2022/01/27 06:39:40;;;;;;;17.48;8.25;;;;;;;;;;4979865;28;20234;-45
2022/01/27 06:42:08;;;;;;;16.15;8.65;;;;;;;;;;4995445;28;20231;-43
2022/01/27 06:44:35;;;;;;;21.70;9.57;;;;;;;;;;5000020;28;21218;-42
2022/01/27 06:47:02;;;;;;;18.17;9.20;;;;;;;;;;5014797;28;20234;-46
2022/01/27 06:49:29;;;;;;;20.45;8.93;;;;;;;;;;5011521;28;20216;-43
2022/01/27 06:51:56;;;;;;;19.63;9.20;;;;;;;;;;5004609;28;20438;-42
2022/01/27 06:54:23;;;;;;;20.48;9.50;;;;;;;;;;5001120;28;20232;-41
2022/01/27 06:56:50;;;;;;;19.42;9.55;;;;;;;;;;4990630;28;20808;-45
2022/01/27 06:59:17;;;;;;;17.88;9.10;;;;;;;;;;4994672;28;20254;-44
2022/01/27 07:01:44;;;;;;;18.73;9.50;;;;;;;;;;5007325;28;20227;-46
2022/01/27 07:04:12;;;;;;;17.05;9.13;;;;;;;;;;5014061;28;20219;-48
2022/01/27 07:06:39;;;;;;;17.40;8.82;;;;;;;;;;4987771;28;20229;-45
2022/01/27 07:09:06;;;;;;;23.88;9.02;;;;;;;;;;4974661;28;20978;-39
2022/01/27 07:11:33;;;;;;;13.85;9.77;;;;;;;;;;4992825;28;20228;-41
2022/01/27 07:14:00;;;;;;;17.27;9.90;;;;;;;;;;4994746;28;20701;-41
2022/01/27 07:16:27;;;;;;;16.33;9.60;;;;;;;;;;5002338;28;20272;-43
2022/01/27 07:18:55;;;;;;;19.10;9.80;;;;;;;;;;4994578;28;20779;-41
2022/01/27 07:21:22;;;;;;;19.15;10.15;;;;;;;;;;4994753;28;20239;-42
2022/01/27 07:23:49;;;;;;;19.98;10.38;;;;;;;;;;4995109;28;20236;-41
2022/01/27 07:26:16;;;;;;;15.93;9.10;;;;;;;;;;4994678;28;20224;-41
2022/01/27 07:28:43;;;;;;;16.67;9.52;;;;;;;;;;4981761;28;20237;-41
2022/01/27 07:31:10;;;;;;;19.52;10.23;;;;;;;;;;4999744;28;20242;-41
2022/01/27 07:33:37;;;;;;;15.18;9.52;;;;;;;;;;4998807;28;20555;-41
2022/01/27 07:36:04;;;;;;;16.05;10.30;;;;;;;;;;4994036;28;20249;-41
2022/01/27 07:38:30;;;;;;;14.95;9.57;;;;;;;;;;4993645;28;20262;-41
2022/01/27 07:40:57;;;;;;;17.52;10.93;;;;;;;;;;4994599;28;20255;-41
2022/01/27 07:43:24;;;;;;;18.75;10.02;;;;;;;;;;4994441;28;20236;-40
2022/01/27 07:45:52;;;;;;;13.70;9.73;;;;;;;;;;4994087;28;20279;-41
2022/01/27 07:48:19;;;;;;;14.77;10.00;;;;;;;;;;4994377;28;20307;-41
2022/01/27 07:50:46;;;;;;;15.63;9.40;;;;;;;;;;4980608;28;20233;-41
2022/01/27 07:53:13;;;;;;;12.93;9.15;;;;;;;;;;4974885;28;20237;-41
2022/01/27 07:55:40;;;;;;;13.30;8.88;;;;;;;;;;4974826;28;20257;-43
2022/01/27 07:58:07;;;;;;;13.50;8.70;;;;;;;;;;4993705;28;20236;-42
2022/01/27 08:00:34;;;;;;;14.68;8.55;;;;;;;;;;4990558;28;20235;-41
2022/01/27 08:03:01;;;;;;;11.98;8.02;;;;;;;;;;4975048;28;20280;-41
2022/01/27 08:05:29;;;;;;;11.27;7.72;;;;;;;;;;4974457;28;20988;-41
2022/01/27 08:07:56;;;;;;;13.30;8.38;;;;;;;;;;4992259;28;20232;-40
2022/01/27 08:10:23;;;;;;;12.60;7.68;;;;;;;;;;4994042;28;20624;-40
2022/01/27 08:12:50;;;;;;;13.63;7.20;;;;;;;;;;4993434;28;20268;-42
2022/01/27 08:15:19;;;;;;;8.90;5.95;;;;;;;;;;4995633;28;20240;-42
2022/01/27 08:17:46;;;;;;;11.63;6.75;;;;;;;;;;4996994;28;20359;-41
2022/01/27 08:20:13;;;;;;;9.75;6.55;;;;;;;;;;4994009;28;20680;-40
2022/01/27 08:22:43;;;;;;;13.02;6.40;;;;;;;;;;4992601;28;20243;-41
2022/01/27 08:25:10;;;;;;;8.93;5.82;;;;;;;;;;4993528;28;20226;-42
2022/01/27 08:27:39;;;;;;;8.70;5.68;;;;;;;;;;4993477;28;20242;-42
2022/01/27 08:30:07;;;;;;;9.13;5.57;;;;;;;;;;4993792;28;20870;-41
2022/01/27 08:32:47;;;;;;;8.63;5.32;;;;;;;;;;5013491;28;20236;-42
2022/01/27 08:35:14;;;;;;;7.93;5.63;;;;;;;;;;4978482;28;20259;-41
2022/01/27 08:37:41;;;;;;;8.20;5.75;;;;;;;;;;4989075;28;20290;-42
2022/01/27 08:40:08;;;;;;;7.68;5.13;;;;;;;;;;4993511;28;20228;-41
2022/01/27 08:42:55;;;;;;;7.68;5.43;;;;;;;;;;4993461;28;20833;-41
2022/01/27 08:45:24;;;;;;;5.97;4.50;;;;;;;;;;4988377;28;20232;-41
2022/01/27 08:47:54;;;;;;;6.63;4.65;;;;;;;;;;4996092;28;20703;-41
2022/01/27 08:50:22;;;;;;;6.05;4.45;;;;;;;;;;4993478;28;20235;-40
2022/01/27 08:52:49;;;;;;;9.10;4.85;;;;;;;;;;4993411;28;20240;-41
2022/01/27 08:55:16;;;;;;;6.18;4.30;;;;;;;;;;4991578;28;20224;-42
2022/01/27 08:57:43;;;;;;;5.65;4.28;;;;;;;;;;4988385;28;20997;-41
2022/01/27 09:00:10;;;;;;;6.85;4.10;;;;;;;;;;4993957;28;20260;-43
2022/01/27 09:02:37;;;;;;;6.47;4.18;;;;;;;;;;5013318;28;20987;-41
2022/01/27 09:05:04;;;;;;;5.32;3.92;;;;;;;;;;5012864;28;20218;-41
2022/01/27 09:07:31;;;;;;;5.72;4.22;;;;;;;;;;4998381;28;20235;-42
2022/01/27 09:09:58;;;;;;;7.63;4.82;;;;;;;;;;4993062;28;20239;-41
2022/01/27 09:12:25;;;;;;;7.53;4.50;;;;;;;;;;4992419;28;20263;-41
2022/01/27 09:14:52;;;;;;;7.05;4.53;;;;;;;;;;4992622;28;20255;-41
2022/01/27 09:17:24;;;;;;;4.68;3.63;;;;;;;;;;5007346;28;20232;-41
2022/01/27 09:19:51;;;;;;;7.55;4.03;;;;;;;;;;4973469;28;20836;-41
2022/01/27 09:22:19;;;;;;;5.53;3.92;;;;;;;;;;4973687;28;20221;-41
2022/01/27 09:24:54;;;;;;;5.47;3.60;;;;;;;;;;4976079;28;20239;-41
2022/01/27 09:27:21;;;;;;;7.13;4.22;;;;;;;;;;4992599;28;20242;-40
2022/01/27 09:29:55;;;;;;;5.95;3.63;;;;;;;;;;4991964;28;20255;-41
2022/01/27 09:32:25;;;;;;;4.65;3.40;;;;;;;;;;5011429;28;20334;-42
2022/01/27 09:35:12;;;;;;;4.50;3.35;;;;;;;;;;5005420;28;20248;-41
2022/01/27 09:37:39;;;;;;;4.97;3.35;;;;;;;;;;4992201;28;20228;-40
2022/01/27 09:40:07;;;;;;;4.38;3.17;;;;;;;;;;4991961;28;20326;-41
2022/01/27 09:42:36;;;;;;;4.15;3.60;;;;;;;;;;4992787;28;20299;-41
2022/01/27 09:45:05;;;;;;;5.07;2.95;;;;;;;;;;4992661;28;20234;-47
2022/01/27 09:47:34;;;;;;;4.93;3.20;;;;;;;;;;5001027;28;20220;-41
2022/01/27 09:52:47;;;;;;;3.30;2.72;;;;;;;;;;4973202;28;20232;-41
2022/01/27 09:55:14;;;;;;;4.53;3.03;;;;;;;;;;4978185;28;20343;-42
2022/01/27 09:57:41;;;;;;;4.13;2.75;;;;;;;;;;4992609;28;20213;-42
2022/01/27 10:00:08;;;;;;;3.70;2.75;;;;;;;;;;4992997;28;20228;-41
2022/01/27 10:02:35;;;;;;;3.45;3.00;;;;;;;;;;4987346;28;20695;-40
2022/01/27 10:05:03;;;;;;;4.65;2.80;;;;;;;;;;4977120;28;20311;-42
2022/01/27 10:07:33;;;;;;;3.20;2.28;;;;;;;;;;4992249;28;20247;-41
2022/01/27 10:10:05;;;;;;;3.22;2.42;;;;;;;;;;4992378;28;20255;-42
2022/01/27 10:12:35;;;;;;;3.83;2.78;;;;;;;;;;4988080;28;20272;-41
2022/01/27 10:15:02;;;;;;;3.22;2.30;;;;;;;;;;4976591;28;20224;-42
2022/01/27 10:17:30;;;;;;;3.33;2.53;;;;;;;;;;4972937;28;21546;-41
2022/01/27 10:19:57;;;;;;;4.38;2.40;;;;;;;;;;4973064;28;20230;-41
2022/01/27 10:22:25;;;;;;;2.47;2.20;;;;;;;;;;4972850;28;20327;-41
2022/01/27 10:24:52;;;;;;;3.40;2.50;;;;;;;;;;4974841;28;20237;-41
2022/01/27 10:27:24;;;;;;;4.13;2.40;;;;;;;;;;4991166;28;20982;-41
2022/01/27 10:32:24;;;;;;;3.20;2.30;;;;;;;;;;5010891;28;20232;-41
2022/01/27 10:34:51;;;;;;;3.83;2.30;;;;;;;;;;4999950;28;20275;-42
2022/01/27 10:37:18;;;;;;;2.85;2.05;;;;;;;;;;4991919;28;20611;-41
2022/01/27 10:39:45;;;;;;;3.13;2.08;;;;;;;;;;4990438;28;20254;-41
2022/01/27 10:42:12;;;;;;;3.53;2.35;;;;;;;;;;4991834;28;20228;-41
2022/01/27 10:44:44;;;;;;;3.08;1.88;;;;;;;;;;4991694;28;20821;-42
2022/01/27 10:47:19;;;;;;;4.25;2.30;;;;;;;;;;4989153;28;20714;-41
2022/01/27 10:49:56;;;;;;;3.15;2.05;;;;;;;;;;4991868;28;20227;-42
2022/01/27 10:52:43;;;;;;;3.63;2.30;;;;;;;;;;4991065;28;20236;-42
2022/01/27 10:55:10;;;;;;;2.72;2.00;;;;;;;;;;4991688;28;20224;-42
2022/01/27 10:57:37;;;;;;;2.35;1.95;;;;;;;;;;4990759;28;20242;-42
2022/01/27 11:00:04;;;;;;;2.33;1.75;;;;;;;;;;4991498;28;20252;-42
2022/01/27 11:02:31;;;;;;;2.47;2.00;;;;;;;;;;5011204;28;20702;-41
2022/01/27 11:04:58;;;;;;;3.95;1.95;;;;;;;;;;5008684;28;20224;-42
2022/01/27 11:07:26;;;;;;;2.95;2.03;;;;;;;;;;4991976;28;22800;-40
2022/01/27 11:09:56;;;;;;;3.58;1.98;;;;;;;;;;4975239;28;20229;-42
2022/01/27 11:12:23;;;;;;;2.60;1.88;;;;;;;;;;4975449;28;20235;-42
2022/01/27 11:14:50;;;;;;;2.20;1.77;;;;;;;;;;4976075;28;20235;-43
2022/01/27 11:17:20;;;;;;;2.42;1.60;;;;;;;;;;5012533;28;21105;-42
2022/01/27 11:27:41;;;;;;;2.13;1.58;;;;;;;;;;4966216;28;20243;-41
2022/01/27 11:30:08;;;;;;;2.25;1.42;;;;;;;;;;4976230;28;20233;-41
2022/01/27 11:32:35;;;;;;;3.05;1.48;;;;;;;;;;5014261;28;20310;-40
2022/01/27 11:35:02;;;;;;;2.40;1.65;;;;;;;;;;5011726;28;20230;-41
2022/01/27 11:37:29;;;;;;;2.33;1.63;;;;;;;;;;4994535;28;20228;-42
2022/01/27 11:39:56;;;;;;;2.00;1.40;;;;;;;;;;4994845;28;20951;-41
2022/01/27 11:42:43;;;;;;;2.25;1.55;;;;;;;;;;4974757;28;20236;-41
2022/01/27 11:45:10;;;;;;;2.42;1.60;;;;;;;;;;4977340;28;20319;-41
2022/01/27 11:47:45;;;;;;;2.22;1.52;;;;;;;;;;5004883;28;20319;-42
2022/01/27 11:50:23;;;;;;;2.05;1.65;;;;;;;;;;4994531;28;20232;-41
2022/01/27 11:52:50;;;;;;;2.30;1.60;;;;;;;;;;4980143;28;20233;-42
2022/01/27 11:55:17;;;;;;;2.70;1.70;;;;;;;;;;4977427;28;20860;-42
2022/01/27 11:57:45;;;;;;;2.22;1.63;;;;;;;;;;4994430;28;20239;-41
2022/01/27 12:00:12;;;;;;;2.33;1.75;;;;;;;;;;4995488;28;20992;-40
2022/01/27 12:02:39;;;;;;;2.67;1.70;;;;;;;;;;5008613;28;20748;-41
2022/01/27 12:05:06;;;;;;;2.63;1.73;;;;;;;;;;4993982;28;20311;-42
2022/01/27 12:07:33;;;;;;;2.75;1.58;;;;;;;;;;4993587;28;20243;-41
2022/01/27 12:10:00;;;;;;;2.88;1.52;;;;;;;;;;4994072;28;20232;-41
2022/01/27 12:12:28;;;;;;;3.05;1.77;;;;;;;;;;4993994;28;20240;-42
2022/01/27 12:15:01;;;;;;;3.45;1.80;;;;;;;;;;4979075;28;20962;-42
2022/01/27 12:17:28;;;;;;;2.58;1.88;;;;;;;;;;4993003;28;20232;-42
2022/01/27 12:19:55;;;;;;;3.05;1.83;;;;;;;;;;4993835;28;20279;-42
2022/01/27 12:22:24;;;;;;;2.95;1.80;;;;;;;;;;4993785;28;20232;-42
2022/01/27 12:24:51;;;;;;;5.63;1.85;;;;;;;;;;4993230;28;20234;-42
2022/01/27 12:27:18;;;;;;;3.80;2.17;;;;;;;;;;4994140;28;20246;-41
2022/01/27 12:30:05;;;;;;;2.92;1.83;;;;;;;;;;4994128;28;20224;-41
2022/01/27 12:32:32;;;;;;;3.60;1.88;;;;;;;;;;5013031;28;20224;-41
2022/01/27 12:34:59;;;;;;;3.88;1.80;;;;;;;;;;5012943;28;20234;-42
2022/01/27 12:37:26;;;;;;;3.08;1.65;;;;;;;;;;4993301;28;20706;-41
2022/01/27 12:39:54;;;;;;;5.65;2.10;;;;;;;;;;4993969;28;20232;-41
2022/01/27 12:42:21;;;;;;;3.13;1.98;;;;;;;;;;4993743;28;20235;-41
2022/01/27 12:44:48;;;;;;;3.70;1.90;;;;;;;;;;4993340;28;20224;-41
2022/01/27 12:47:16;;;;;;;3.83;2.13;;;;;;;;;;4987492;28;20767;-41
2022/01/27 12:49:44;;;;;;;3.78;2.28;;;;;;;;;;4993264;28;20311;-41
2022/01/27 12:52:11;;;;;;;3.28;2.05;;;;;;;;;;4993513;28;20252;-43
2022/01/27 12:54:39;;;;;;;5.50;2.58;;;;;;;;;;4993769;28;20216;-41
2022/01/27 12:57:06;;;;;;;4.50;2.55;;;;;;;;;;4992312;28;20282;-43
2022/01/27 12:59:33;;;;;;;3.63;2.30;;;;;;;;;;4973825;28;20251;-42
2022/01/27 13:02:00;;;;;;;6.60;2.50;;;;;;;;;;5005094;28;20257;-41
2022/01/27 13:04:27;;;;;;;5.90;2.40;;;;;;;;;;5012946;28;20227;-43
2022/01/27 13:06:55;;;;;;;4.53;2.28;;;;;;;;;;5000020;28;20244;-41
2022/01/27 13:09:22;;;;;;;4.93;2.40;;;;;;;;;;4992374;28;20234;-41
2022/01/27 13:11:51;;;;;;;4.55;2.33;;;;;;;;;;4993000;28;20232;-40
2022/01/27 13:14:19;;;;;;;5.13;2.53;;;;;;;;;;4993118;28;20224;-41
2022/01/27 13:16:53;;;;;;;5.43;2.53;;;;;;;;;;4995555;28;20232;-43
2022/01/27 13:19:24;;;;;;;4.40;2.42;;;;;;;;;;4992204;28;20230;-42
2022/01/27 13:21:53;;;;;;;4.90;2.33;;;;;;;;;;4992710;28;20232;-42
2022/01/27 13:24:33;;;;;;;3.22;2.28;;;;;;;;;;4992724;28;20232;-42
2022/01/27 13:27:00;;;;;;;4.22;2.47;;;;;;;;;;4992691;28;21055;-41
2022/01/27 13:29:29;;;;;;;3.53;1.98;;;;;;;;;;4992979;28;20231;-41
2022/01/27 13:31:57;;;;;;;4.47;2.38;;;;;;;;;;4978481;28;20363;-41
2022/01/27 13:34:24;;;;;;;3.42;2.20;;;;;;;;;;4973419;28;20224;-41
2022/01/27 13:36:51;;;;;;;3.72;1.83;;;;;;;;;;4983272;28;20781;-40
2022/01/27 13:42:11;;;;;;;4.40;1.80;;;;;;;;;;4983175;28;20240;-41
2022/01/27 13:44:38;;;;;;;3.75;2.20;;;;;;;;;;4992343;28;20224;-42
2022/01/27 13:47:10;;;;;;;5.53;2.50;;;;;;;;;;4995717;28;20335;-41
2022/01/27 13:49:37;;;;;;;5.38;2.03;;;;;;;;;;4991866;28;20234;-41
2022/01/27 13:52:05;;;;;;;4.35;1.92;;;;;;;;;;4992577;28;20238;-41
2022/01/27 13:54:32;;;;;;;4.25;2.05;;;;;;;;;;4972996;28;20240;-41
2022/01/27 13:56:59;;;;;;;3.47;1.70;;;;;;;;;;4984206;28;20228;-40
2022/01/27 13:59:29;;;;;;;5.63;1.92;;;;;;;;;;4992678;28;20235;-40
2022/01/27 14:01:59;;;;;;;3.63;1.83;;;;;;;;;;5007749;28;20258;-40
2022/01/27 14:04:26;;;;;;;5.22;2.40;;;;;;;;;;5000604;28;20264;-41
2022/01/27 14:06:53;;;;;;;4.72;2.00;;;;;;;;;;4992214;28;20718;-41
2022/01/27 14:09:21;;;;;;;5.70;1.77;;;;;;;;;;4992576;28;20235;-42
2022/01/27 14:11:48;;;;;;;4.13;2.00;;;;;;;;;;4992052;28;20231;-41
2022/01/27 14:14:18;;;;;;;5.05;2.60;;;;;;;;;;4991439;28;20280;-40
2022/01/27 14:16:45;;;;;;;4.85;2.03;;;;;;;;;;4992521;28;20318;-41
2022/01/27 14:19:12;;;;;;;5.22;2.03;;;;;;;;;;4992547;28;20223;-41
2022/01/27 14:21:39;;;;;;;4.07;1.90;;;;;;;;;;4992168;28;20315;-42
2022/01/27 14:24:23;;;;;;;3.00;1.58;;;;;;;;;;4992172;28;20228;-41
2022/01/27 14:26:50;;;;;;;4.53;2.17;;;;;;;;;;4990692;28;21017;-41
2022/01/27 14:29:17;;;;;;;3.08;1.65;;;;;;;;;;4992272;28;20227;-42
2022/01/27 14:31:44;;;;;;;7.82;2.15;;;;;;;;;;5005699;28;20326;-41
2022/01/27 14:34:11;;;;;;;3.38;1.98;;;;;;;;;;5011489;28;20223;-41
2022/01/27 14:36:41;;;;;;;4.22;1.90;;;;;;;;;;4998585;28;21015;-40
2022/01/27 14:39:08;;;;;;;4.22;1.85;;;;;;;;;;4991894;28;20235;-41
2022/01/27 14:41:36;;;;;;;5.93;2.00;;;;;;;;;;4994164;28;20227;-41
2022/01/27 14:44:03;;;;;;;3.88;1.70;;;;;;;;;;4995170;28;20220;-41
2022/01/27 14:46:39;;;;;;;3.83;1.55;;;;;;;;;;4997233;28;20232;-41
2022/01/27 14:49:08;;;;;;;4.68;1.65;;;;;;;;;;4992042;28;20278;-40
2022/01/27 14:51:36;;;;;;;5.60;2.05;;;;;;;;;;4995345;28;20236;-41
2022/01/27 14:54:03;;;;;;;3.67;1.77;;;;;;;;;;4995088;28;20234;-42
2022/01/27 14:56:32;;;;;;;4.78;1.80;;;;;;;;;;4994868;28;20661;-43
2022/01/27 14:58:59;;;;;;;4.70;1.60;;;;;;;;;;4988077;28;20252;-41
2022/01/27 15:01:26;;;;;;;3.78;1.90;;;;;;;;;;4997257;28;20241;-40
2022/01/27 15:03:53;;;;;;;4.03;1.60;;;;;;;;;;5014753;28;20745;-41
2022/01/27 15:06:20;;;;;;;5.32;1.60;;;;;;;;;;5007706;28;20238;-40
2022/01/27 15:08:48;;;;;;;6.10;1.60;;;;;;;;;;4994764;28;20760;-41
2022/01/27 15:11:19;;;;;;;4.05;1.63;;;;;;;;;;4977229;28;20276;-42
2022/01/27 15:13:48;;;;;;;3.78;1.52;;;;;;;;;;4975336;28;20224;-41
2022/01/27 15:21:47;;;;;;;3.35;1.40;;;;;;;;;;4998487;28;20902;-41
2022/01/27 15:24:14;;;;;;;3.67;1.58;;;;;;;;;;4994609;28;20234;-41
2022/01/27 15:26:41;;;;;;;3.97;1.30;;;;;;;;;;4994225;28;20235;-42
2022/01/27 15:29:10;;;;;;;5.10;1.40;;;;;;;;;;4994965;28;20282;-41
2022/01/27 15:31:39;;;;;;;3.80;1.27;;;;;;;;;;4993487;28;20275;-41
2022/01/27 15:34:06;;;;;;;3.95;1.38;;;;;;;;;;4994963;28;20232;-41
2022/01/27 15:36:33;;;;;;;3.45;1.33;;;;;;;;;;4994491;28;20318;-42
2022/01/27 15:39:18;;;;;;;5.93;1.40;;;;;;;;;;4994589;28;20331;-41